sensor_id;sensor_type;location;lat;lon;timestamp;P1;durP1;ratioP1;P2;durP2;ratioP2
18013;SDS011;9132;47.946;10.394;2023-04-03T00:00:53;8.73;;;6.73;;
18013;SDS011;9132;47.946;10.394;2023-04-03T00:03:19;6.90;;;6.20;;
18013;SDS011;9132;47.946;10.394;2023-04-03T00:05:46;7.17;;;6.27;;
18013;SDS011;9132;47.946;10.394;2023-04-03T00:08:12;7.67;;;6.07;;
18013;SDS011;9132;47.946;10.394;2023-04-03T00:10:40;8.63;;;6.50;;
18013;SDS011;9132;47.946;10.394;2023-04-03T00:13:07;8.43;;;6.20;;
18013;SDS011;9132;47.946;10.394;2023-04-03T00:15:33;6.53;;;5.90;;
18013;SDS011;9132;47.946;10.394;2023-04-03T00:18:00;8.93;;;6.40;;
18013;SDS011;9132;47.946;10.394;2023-04-03T00:20:27;6.40;;;5.70;;
18013;SDS011;9132;47.946;10.394;2023-04-03T00:22:53;6.77;;;5.87;;
18013;SDS011;9132;47.946;10.394;2023-04-03T00:25:20;6.40;;;5.43;;
18013;SDS011;9132;47.946;10.394;2023-04-03T00:27:47;7.77;;;5.47;;
18013;SDS011;9132;47.946;10.394;2023-04-03T00:30:14;6.90;;;6.20;;
18013;SDS011;9132;47.946;10.394;2023-04-03T00:32:41;7.03;;;5.93;;
18013;SDS011;9132;47.946;10.394;2023-04-03T00:35:08;7.20;;;6.07;;
18013;SDS011;9132;47.946;10.394;2023-04-03T00:37:34;6.93;;;5.93;;
18013;SDS011;9132;47.946;10.394;2023-04-03T00:40:00;7.93;;;5.43;;
18013;SDS011;9132;47.946;10.394;2023-04-03T00:42:27;6.13;;;5.53;;
18013;SDS011;9132;47.946;10.394;2023-04-03T00:45:23;6.13;;;5.50;;
18013;SDS011;9132;47.946;10.394;2023-04-03T00:47:50;6.30;;;5.70;;
18013;SDS011;9132;47.946;10.394;2023-04-03T00:50:16;6.00;;;5.33;;
18013;SDS011;9132;47.946;10.394;2023-04-03T00:52:42;5.93;;;5.33;;
18013;SDS011;9132;47.946;10.394;2023-04-03T00:55:11;6.77;;;5.50;;
18013;SDS011;9132;47.946;10.394;2023-04-03T00:57:40;6.87;;;6.00;;
18013;SDS011;9132;47.946;10.394;2023-04-03T01:00:08;7.03;;;6.13;;
18013;SDS011;9132;47.946;10.394;2023-04-03T01:02:36;7.00;;;5.90;;
18013;SDS011;9132;47.946;10.394;2023-04-03T01:05:03;7.47;;;6.30;;
18013;SDS011;9132;47.946;10.394;2023-04-03T01:07:30;6.87;;;6.17;;
18013;SDS011;9132;47.946;10.394;2023-04-03T01:09:59;7.17;;;6.07;;
18013;SDS011;9132;47.946;10.394;2023-04-03T01:12:26;7.87;;;5.87;;
18013;SDS011;9132;47.946;10.394;2023-04-03T01:14:54;6.77;;;6.10;;
18013;SDS011;9132;47.946;10.394;2023-04-03T01:17:24;7.87;;;5.53;;
18013;SDS011;9132;47.946;10.394;2023-04-03T01:19:56;8.33;;;6.20;;
18013;SDS011;9132;47.946;10.394;2023-04-03T01:22:23;6.70;;;5.93;;
18013;SDS011;9132;47.946;10.394;2023-04-03T01:24:52;7.90;;;6.37;;
18013;SDS011;9132;47.946;10.394;2023-04-03T01:27:18;6.60;;;5.93;;
18013;SDS011;9132;47.946;10.394;2023-04-03T01:29:44;7.07;;;6.33;;
18013;SDS011;9132;47.946;10.394;2023-04-03T01:32:12;9.10;;;6.67;;
18013;SDS011;9132;47.946;10.394;2023-04-03T01:34:39;8.10;;;7.27;;
18013;SDS011;9132;47.946;10.394;2023-04-03T01:37:05;9.87;;;7.27;;
18013;SDS011;9132;47.946;10.394;2023-04-03T01:39:31;8.63;;;7.20;;
18013;SDS011;9132;47.946;10.394;2023-04-03T01:41:58;8.40;;;7.50;;
18013;SDS011;9132;47.946;10.394;2023-04-03T01:44:25;8.60;;;7.70;;
18013;SDS011;9132;47.946;10.394;2023-04-03T01:46:51;9.77;;;7.27;;
18013;SDS011;9132;47.946;10.394;2023-04-03T01:49:19;8.93;;;8.03;;
18013;SDS011;9132;47.946;10.394;2023-04-03T01:51:45;9.93;;;8.73;;
18013;SDS011;9132;47.946;10.394;2023-04-03T01:54:11;11.00;;;8.43;;
18013;SDS011;9132;47.946;10.394;2023-04-03T01:56:38;11.30;;;8.57;;
18013;SDS011;9132;47.946;10.394;2023-04-03T01:59:04;9.37;;;8.37;;
18013;SDS011;9132;47.946;10.394;2023-04-03T02:01:30;10.60;;;8.37;;
18013;SDS011;9132;47.946;10.394;2023-04-03T02:03:57;9.43;;;8.53;;
18013;SDS011;9132;47.946;10.394;2023-04-03T02:06:25;9.23;;;8.23;;
18013;SDS011;9132;47.946;10.394;2023-04-03T02:08:51;11.80;;;8.63;;
18013;SDS011;9132;47.946;10.394;2023-04-03T02:11:17;10.13;;;8.50;;
18013;SDS011;9132;47.946;10.394;2023-04-03T02:13:44;10.47;;;9.23;;
18013;SDS011;9132;47.946;10.394;2023-04-03T02:16:10;12.60;;;9.03;;
18013;SDS011;9132;47.946;10.394;2023-04-03T02:18:38;10.97;;;8.67;;
18013;SDS011;9132;47.946;10.394;2023-04-03T02:21:05;10.30;;;8.90;;
18013;SDS011;9132;47.946;10.394;2023-04-03T02:23:32;11.87;;;8.90;;
18013;SDS011;9132;47.946;10.394;2023-04-03T02:26:04;13.43;;;10.47;;
18013;SDS011;9132;47.946;10.394;2023-04-03T02:28:31;10.90;;;9.47;;
18013;SDS011;9132;47.946;10.394;2023-04-03T02:30:58;12.07;;;9.83;;
18013;SDS011;9132;47.946;10.394;2023-04-03T02:33:24;11.47;;;9.43;;
18013;SDS011;9132;47.946;10.394;2023-04-03T02:35:52;11.30;;;9.10;;
18013;SDS011;9132;47.946;10.394;2023-04-03T02:38:18;11.27;;;9.00;;
18013;SDS011;9132;47.946;10.394;2023-04-03T02:40:46;12.37;;;9.53;;
18013;SDS011;9132;47.946;10.394;2023-04-03T02:43:13;10.23;;;8.97;;
18013;SDS011;9132;47.946;10.394;2023-04-03T02:45:39;12.40;;;9.00;;
18013;SDS011;9132;47.946;10.394;2023-04-03T02:48:05;9.60;;;8.60;;
18013;SDS011;9132;47.946;10.394;2023-04-03T02:50:31;10.03;;;8.10;;
18013;SDS011;9132;47.946;10.394;2023-04-03T02:52:58;10.17;;;7.63;;
18013;SDS011;9132;47.946;10.394;2023-04-03T02:55:24;9.77;;;7.93;;
18013;SDS011;9132;47.946;10.394;2023-04-03T02:57:52;9.43;;;8.40;;
18013;SDS011;9132;47.946;10.394;2023-04-03T03:00:19;8.53;;;7.47;;
18013;SDS011;9132;47.946;10.394;2023-04-03T03:02:45;9.43;;;8.40;;
18013;SDS011;9132;47.946;10.394;2023-04-03T03:05:11;10.60;;;8.40;;
18013;SDS011;9132;47.946;10.394;2023-04-03T03:07:38;9.03;;;8.00;;
18013;SDS011;9132;47.946;10.394;2023-04-03T03:10:07;11.53;;;7.83;;
18013;SDS011;9132;47.946;10.394;2023-04-03T03:12:34;9.00;;;7.00;;
18013;SDS011;9132;47.946;10.394;2023-04-03T03:15:03;10.37;;;7.33;;
18013;SDS011;9132;47.946;10.394;2023-04-03T03:17:29;9.10;;;7.10;;
18013;SDS011;9132;47.946;10.394;2023-04-03T03:19:55;8.30;;;6.57;;
18013;SDS011;9132;47.946;10.394;2023-04-03T03:22:22;7.80;;;6.43;;
18013;SDS011;9132;47.946;10.394;2023-04-03T03:24:48;8.27;;;6.73;;
18013;SDS011;9132;47.946;10.394;2023-04-03T03:27:14;9.73;;;6.70;;
18013;SDS011;9132;47.946;10.394;2023-04-03T03:29:41;10.60;;;6.70;;
18013;SDS011;9132;47.946;10.394;2023-04-03T03:32:09;7.60;;;6.37;;
18013;SDS011;9132;47.946;10.394;2023-04-03T03:34:35;9.27;;;7.67;;
18013;SDS011;9132;47.946;10.394;2023-04-03T03:37:01;8.17;;;7.27;;
18013;SDS011;9132;47.946;10.394;2023-04-03T03:39:28;8.57;;;7.37;;
18013;SDS011;9132;47.946;10.394;2023-04-03T03:41:54;10.43;;;6.90;;
18013;SDS011;9132;47.946;10.394;2023-04-03T03:44:21;7.57;;;6.60;;
18013;SDS011;9132;47.946;10.394;2023-04-03T03:46:47;8.67;;;7.10;;
18013;SDS011;9132;47.946;10.394;2023-04-03T03:49:15;9.43;;;7.03;;
18013;SDS011;9132;47.946;10.394;2023-04-03T03:51:41;8.20;;;6.90;;
18013;SDS011;9132;47.946;10.394;2023-04-03T03:54:07;8.97;;;6.87;;
18013;SDS011;9132;47.946;10.394;2023-04-03T03:56:34;9.50;;;7.03;;
18013;SDS011;9132;47.946;10.394;2023-04-03T03:59:00;7.80;;;6.83;;
18013;SDS011;9132;47.946;10.394;2023-04-03T04:01:27;7.87;;;6.60;;
18013;SDS011;9132;47.946;10.394;2023-04-03T04:03:53;9.10;;;6.87;;
18013;SDS011;9132;47.946;10.394;2023-04-03T04:06:21;8.07;;;6.77;;
18013;SDS011;9132;47.946;10.394;2023-04-03T04:08:48;7.37;;;6.53;;
18013;SDS011;9132;47.946;10.394;2023-04-03T04:11:14;7.67;;;5.90;;
18013;SDS011;9132;47.946;10.394;2023-04-03T04:13:41;8.97;;;6.90;;
18013;SDS011;9132;47.946;10.394;2023-04-03T04:16:07;9.47;;;6.90;;
18013;SDS011;9132;47.946;10.394;2023-04-03T04:18:34;12.07;;;7.27;;
18013;SDS011;9132;47.946;10.394;2023-04-03T04:21:01;11.53;;;8.13;;
18013;SDS011;9132;47.946;10.394;2023-04-03T04:23:28;11.83;;;7.87;;
18013;SDS011;9132;47.946;10.394;2023-04-03T04:25:55;11.33;;;7.47;;
18013;SDS011;9132;47.946;10.394;2023-04-03T04:28:21;7.77;;;6.90;;
18013;SDS011;9132;47.946;10.394;2023-04-03T04:30:47;9.90;;;7.63;;
18013;SDS011;9132;47.946;10.394;2023-04-03T04:33:14;9.60;;;7.20;;
18013;SDS011;9132;47.946;10.394;2023-04-03T04:35:41;11.93;;;7.90;;
18013;SDS011;9132;47.946;10.394;2023-04-03T04:38:08;8.80;;;7.30;;
18013;SDS011;9132;47.946;10.394;2023-04-03T04:40:36;8.13;;;6.73;;
18013;SDS011;9132;47.946;10.394;2023-04-03T04:43:02;6.70;;;5.83;;
18013;SDS011;9132;47.946;10.394;2023-04-03T04:45:29;6.47;;;5.80;;
18013;SDS011;9132;47.946;10.394;2023-04-03T04:47:55;8.70;;;6.60;;
18013;SDS011;9132;47.946;10.394;2023-04-03T04:50:21;6.73;;;6.03;;
18013;SDS011;9132;47.946;10.394;2023-04-03T04:52:48;6.97;;;5.97;;
18013;SDS011;9132;47.946;10.394;2023-04-03T04:55:14;6.97;;;5.40;;
18013;SDS011;9132;47.946;10.394;2023-04-03T04:57:42;7.63;;;5.73;;
18013;SDS011;9132;47.946;10.394;2023-04-03T05:00:08;7.33;;;6.03;;
18013;SDS011;9132;47.946;10.394;2023-04-03T05:02:35;6.50;;;5.37;;
18013;SDS011;9132;47.946;10.394;2023-04-03T05:05:01;7.43;;;5.70;;
18013;SDS011;9132;47.946;10.394;2023-04-03T05:07:28;9.60;;;5.87;;
18013;SDS011;9132;47.946;10.394;2023-04-03T05:09:54;6.73;;;5.80;;
18013;SDS011;9132;47.946;10.394;2023-04-03T05:12:21;7.50;;;5.90;;
18013;SDS011;9132;47.946;10.394;2023-04-03T05:14:48;7.13;;;5.93;;
18013;SDS011;9132;47.946;10.394;2023-04-03T05:17:15;7.20;;;6.10;;
18013;SDS011;9132;47.946;10.394;2023-04-03T05:19:41;8.20;;;6.10;;
18013;SDS011;9132;47.946;10.394;2023-04-03T05:22:07;8.00;;;6.03;;
18013;SDS011;9132;47.946;10.394;2023-04-03T05:24:34;8.17;;;6.80;;
18013;SDS011;9132;47.946;10.394;2023-04-03T05:27:00;8.53;;;6.67;;
18013;SDS011;9132;47.946;10.394;2023-04-03T05:29:27;13.67;;;6.90;;
18013;SDS011;9132;47.946;10.394;2023-04-03T05:31:54;7.70;;;6.20;;
18013;SDS011;9132;47.946;10.394;2023-04-03T05:34:21;10.73;;;6.67;;
18013;SDS011;9132;47.946;10.394;2023-04-03T05:36:47;9.07;;;6.63;;
18013;SDS011;9132;47.946;10.394;2023-04-03T05:39:14;8.47;;;6.37;;
18013;SDS011;9132;47.946;10.394;2023-04-03T05:41:40;6.80;;;5.90;;
18013;SDS011;9132;47.946;10.394;2023-04-03T05:44:06;7.77;;;6.50;;
18013;SDS011;9132;47.946;10.394;2023-04-03T05:46:33;7.13;;;6.40;;
18013;SDS011;9132;47.946;10.394;2023-04-03T05:49:00;8.23;;;6.30;;
18013;SDS011;9132;47.946;10.394;2023-04-03T05:51:28;9.67;;;7.03;;
18013;SDS011;9132;47.946;10.394;2023-04-03T05:53:56;8.70;;;6.40;;
18013;SDS011;9132;47.946;10.394;2023-04-03T05:56:24;8.57;;;7.27;;
18013;SDS011;9132;47.946;10.394;2023-04-03T05:58:51;10.03;;;6.23;;
18013;SDS011;9132;47.946;10.394;2023-04-03T06:01:17;6.70;;;6.00;;
18013;SDS011;9132;47.946;10.394;2023-04-03T06:03:43;5.97;;;4.97;;
18013;SDS011;9132;47.946;10.394;2023-04-03T06:06:13;6.50;;;5.47;;
18013;SDS011;9132;47.946;10.394;2023-04-03T06:08:40;7.53;;;6.67;;
18013;SDS011;9132;47.946;10.394;2023-04-03T06:11:06;8.07;;;6.83;;
18013;SDS011;9132;47.946;10.394;2023-04-03T06:13:33;10.10;;;6.63;;
18013;SDS011;9132;47.946;10.394;2023-04-03T06:16:00;8.90;;;7.30;;
18013;SDS011;9132;47.946;10.394;2023-04-03T06:18:27;8.07;;;5.73;;
18013;SDS011;9132;47.946;10.394;2023-04-03T06:20:53;5.40;;;4.90;;
18013;SDS011;9132;47.946;10.394;2023-04-03T06:23:21;8.13;;;5.90;;
18013;SDS011;9132;47.946;10.394;2023-04-03T06:25:47;9.33;;;6.33;;
18013;SDS011;9132;47.946;10.394;2023-04-03T06:28:14;6.27;;;5.67;;
18013;SDS011;9132;47.946;10.394;2023-04-03T06:30:40;6.83;;;5.13;;
18013;SDS011;9132;47.946;10.394;2023-04-03T06:33:07;6.47;;;5.10;;
18013;SDS011;9132;47.946;10.394;2023-04-03T06:35:33;8.27;;;6.50;;
18013;SDS011;9132;47.946;10.394;2023-04-03T06:38:00;8.57;;;6.10;;
18013;SDS011;9132;47.946;10.394;2023-04-03T06:40:27;11.90;;;7.63;;
18013;SDS011;9132;47.946;10.394;2023-04-03T06:42:54;8.40;;;6.70;;
18013;SDS011;9132;47.946;10.394;2023-04-03T06:45:21;8.43;;;6.13;;
18013;SDS011;9132;47.946;10.394;2023-04-03T06:47:47;7.00;;;6.30;;
18013;SDS011;9132;47.946;10.394;2023-04-03T06:50:13;8.13;;;6.30;;
18013;SDS011;9132;47.946;10.394;2023-04-03T06:52:41;7.37;;;5.70;;
18013;SDS011;9132;47.946;10.394;2023-04-03T06:55:07;8.87;;;5.17;;
18013;SDS011;9132;47.946;10.394;2023-04-03T06:57:35;9.40;;;5.83;;
18013;SDS011;9132;47.946;10.394;2023-04-03T07:00:03;6.43;;;5.20;;
18013;SDS011;9132;47.946;10.394;2023-04-03T07:02:30;6.63;;;5.23;;
18013;SDS011;9132;47.946;10.394;2023-04-03T07:04:56;12.90;;;8.80;;
18013;SDS011;9132;47.946;10.394;2023-04-03T07:07:22;9.07;;;5.80;;
18013;SDS011;9132;47.946;10.394;2023-04-03T07:09:49;7.77;;;6.53;;
18013;SDS011;9132;47.946;10.394;2023-04-03T07:12:16;6.60;;;5.53;;
18013;SDS011;9132;47.946;10.394;2023-04-03T07:14:43;6.97;;;5.63;;
18013;SDS011;9132;47.946;10.394;2023-04-03T07:17:10;8.20;;;5.40;;
18013;SDS011;9132;47.946;10.394;2023-04-03T07:19:36;5.70;;;5.13;;
18013;SDS011;9132;47.946;10.394;2023-04-03T07:22:02;9.70;;;5.27;;
18013;SDS011;9132;47.946;10.394;2023-04-03T07:24:29;7.03;;;4.67;;
18013;SDS011;9132;47.946;10.394;2023-04-03T07:26:55;8.03;;;6.10;;
18013;SDS011;9132;47.946;10.394;2023-04-03T07:29:22;7.53;;;6.47;;
18013;SDS011;9132;47.946;10.394;2023-04-03T07:31:50;6.20;;;5.53;;
18013;SDS011;9132;47.946;10.394;2023-04-03T07:34:16;7.17;;;5.37;;
18013;SDS011;9132;47.946;10.394;2023-04-03T07:36:42;5.53;;;4.90;;
18013;SDS011;9132;47.946;10.394;2023-04-03T07:39:09;8.40;;;5.90;;
18013;SDS011;9132;47.946;10.394;2023-04-03T07:41:36;7.70;;;6.50;;
18013;SDS011;9132;47.946;10.394;2023-04-03T07:44:02;5.63;;;5.03;;
18013;SDS011;9132;47.946;10.394;2023-04-03T07:46:29;6.07;;;5.40;;
18013;SDS011;9132;47.946;10.394;2023-04-03T07:48:57;7.83;;;6.50;;
18013;SDS011;9132;47.946;10.394;2023-04-03T07:51:23;9.27;;;6.73;;
18013;SDS011;9132;47.946;10.394;2023-04-03T07:53:51;8.83;;;6.83;;
18013;SDS011;9132;47.946;10.394;2023-04-03T07:56:17;10.90;;;7.67;;
18013;SDS011;9132;47.946;10.394;2023-04-03T07:58:43;15.37;;;11.13;;
18013;SDS011;9132;47.946;10.394;2023-04-03T08:01:10;9.43;;;6.77;;
18013;SDS011;9132;47.946;10.394;2023-04-03T08:03:36;6.30;;;5.40;;
18013;SDS011;9132;47.946;10.394;2023-04-03T08:06:05;13.57;;;10.80;;
18013;SDS011;9132;47.946;10.394;2023-04-03T08:08:32;8.27;;;6.30;;
18013;SDS011;9132;47.946;10.394;2023-04-03T08:10:59;7.77;;;6.57;;
18013;SDS011;9132;47.946;10.394;2023-04-03T08:13:27;6.13;;;5.30;;
18013;SDS011;9132;47.946;10.394;2023-04-03T08:15:53;7.77;;;5.50;;
18013;SDS011;9132;47.946;10.394;2023-04-03T08:18:22;5.83;;;5.17;;
18013;SDS011;9132;47.946;10.394;2023-04-03T08:20:49;5.90;;;5.20;;
18013;SDS011;9132;47.946;10.394;2023-04-03T08:23:17;5.80;;;4.90;;
18013;SDS011;9132;47.946;10.394;2023-04-03T08:25:43;6.87;;;4.83;;
18013;SDS011;9132;47.946;10.394;2023-04-03T08:28:10;6.73;;;4.97;;
18013;SDS011;9132;47.946;10.394;2023-04-03T08:30:38;5.70;;;4.97;;
18013;SDS011;9132;47.946;10.394;2023-04-03T08:33:04;5.67;;;4.57;;
18013;SDS011;9132;47.946;10.394;2023-04-03T08:35:31;6.23;;;4.70;;
18013;SDS011;9132;47.946;10.394;2023-04-03T08:37:57;5.63;;;4.60;;
18013;SDS011;9132;47.946;10.394;2023-04-03T08:40:25;6.33;;;4.90;;
18013;SDS011;9132;47.946;10.394;2023-04-03T08:42:54;5.23;;;4.33;;
18013;SDS011;9132;47.946;10.394;2023-04-03T08:45:25;6.83;;;5.17;;
18013;SDS011;9132;47.946;10.394;2023-04-03T08:47:55;5.30;;;4.80;;
18013;SDS011;9132;47.946;10.394;2023-04-03T08:50:23;6.27;;;4.40;;
18013;SDS011;9132;47.946;10.394;2023-04-03T08:52:53;5.03;;;4.47;;
18013;SDS011;9132;47.946;10.394;2023-04-03T08:55:22;5.07;;;4.57;;
18013;SDS011;9132;47.946;10.394;2023-04-03T08:57:51;6.53;;;4.57;;
18013;SDS011;9132;47.946;10.394;2023-04-03T09:00:21;5.60;;;3.97;;
18013;SDS011;9132;47.946;10.394;2023-04-03T09:02:50;6.23;;;4.00;;
18013;SDS011;9132;47.946;10.394;2023-04-03T09:05:17;5.73;;;4.47;;
18013;SDS011;9132;47.946;10.394;2023-04-03T09:07:45;5.03;;;3.70;;
18013;SDS011;9132;47.946;10.394;2023-04-03T09:10:13;5.60;;;4.17;;
18013;SDS011;9132;47.946;10.394;2023-04-03T09:12:41;5.53;;;4.30;;
18013;SDS011;9132;47.946;10.394;2023-04-03T09:15:13;5.17;;;3.60;;
18013;SDS011;9132;47.946;10.394;2023-04-03T09:17:45;4.87;;;4.20;;
18013;SDS011;9132;47.946;10.394;2023-04-03T09:20:16;6.37;;;4.53;;
18013;SDS011;9132;47.946;10.394;2023-04-03T09:22:43;3.90;;;3.50;;
18013;SDS011;9132;47.946;10.394;2023-04-03T09:25:11;6.00;;;4.13;;
18013;SDS011;9132;47.946;10.394;2023-04-03T09:27:38;5.87;;;3.63;;
18013;SDS011;9132;47.946;10.394;2023-04-03T09:30:05;3.97;;;3.57;;
18013;SDS011;9132;47.946;10.394;2023-04-03T09:32:34;3.97;;;3.30;;
18013;SDS011;9132;47.946;10.394;2023-04-03T09:35:02;4.60;;;4.20;;
18013;SDS011;9132;47.946;10.394;2023-04-03T09:37:33;5.27;;;3.90;;
18013;SDS011;9132;47.946;10.394;2023-04-03T09:40:00;5.10;;;4.30;;
18013;SDS011;9132;47.946;10.394;2023-04-03T09:42:26;4.93;;;4.03;;
18013;SDS011;9132;47.946;10.394;2023-04-03T09:44:53;6.20;;;4.00;;
18013;SDS011;9132;47.946;10.394;2023-04-03T09:47:23;4.13;;;3.73;;
18013;SDS011;9132;47.946;10.394;2023-04-03T09:49:51;4.00;;;3.60;;
18013;SDS011;9132;47.946;10.394;2023-04-03T09:52:34;4.03;;;3.03;;
18013;SDS011;9132;47.946;10.394;2023-04-03T09:55:05;4.37;;;3.80;;
18013;SDS011;9132;47.946;10.394;2023-04-03T09:57:32;3.80;;;3.40;;
18013;SDS011;9132;47.946;10.394;2023-04-03T09:59:59;4.20;;;3.47;;
18013;SDS011;9132;47.946;10.394;2023-04-03T10:02:30;5.17;;;3.20;;
18013;SDS011;9132;47.946;10.394;2023-04-03T10:04:59;4.93;;;3.97;;
18013;SDS011;9132;47.946;10.394;2023-04-03T10:07:27;4.00;;;3.57;;
18013;SDS011;9132;47.946;10.394;2023-04-03T10:09:54;4.80;;;3.97;;
18013;SDS011;9132;47.946;10.394;2023-04-03T10:12:21;9.70;;;4.70;;
18013;SDS011;9132;47.946;10.394;2023-04-03T10:14:53;6.00;;;4.17;;
18013;SDS011;9132;47.946;10.394;2023-04-03T10:17:21;6.33;;;4.53;;
18013;SDS011;9132;47.946;10.394;2023-04-03T10:19:51;5.47;;;4.17;;
18013;SDS011;9132;47.946;10.394;2023-04-03T10:22:21;4.97;;;3.30;;
18013;SDS011;9132;47.946;10.394;2023-04-03T10:24:52;7.47;;;3.60;;
18013;SDS011;9132;47.946;10.394;2023-04-03T10:27:21;4.27;;;3.87;;
18013;SDS011;9132;47.946;10.394;2023-04-03T10:29:53;4.10;;;3.67;;
18013;SDS011;9132;47.946;10.394;2023-04-03T10:32:25;5.40;;;3.63;;
18013;SDS011;9132;47.946;10.394;2023-04-03T10:34:55;3.77;;;3.40;;
18013;SDS011;9132;47.946;10.394;2023-04-03T10:37:26;5.30;;;3.43;;
18013;SDS011;9132;47.946;10.394;2023-04-03T10:39:54;4.77;;;4.17;;
18013;SDS011;9132;47.946;10.394;2023-04-03T10:42:23;4.07;;;3.60;;
18013;SDS011;9132;47.946;10.394;2023-04-03T10:44:52;5.63;;;3.77;;
18013;SDS011;9132;47.946;10.394;2023-04-03T10:47:21;6.27;;;3.97;;
18013;SDS011;9132;47.946;10.394;2023-04-03T10:49:52;3.93;;;3.27;;
18013;SDS011;9132;47.946;10.394;2023-04-03T10:52:20;4.57;;;3.43;;
18013;SDS011;9132;47.946;10.394;2023-04-03T10:54:52;3.27;;;2.97;;
18013;SDS011;9132;47.946;10.394;2023-04-03T10:57:21;4.27;;;3.37;;
18013;SDS011;9132;47.946;10.394;2023-04-03T10:59:49;4.80;;;3.03;;
18013;SDS011;9132;47.946;10.394;2023-04-03T11:02:18;3.87;;;3.07;;
18013;SDS011;9132;47.946;10.394;2023-04-03T11:04:50;4.37;;;3.10;;
18013;SDS011;9132;47.946;10.394;2023-04-03T11:07:18;3.30;;;2.90;;
18013;SDS011;9132;47.946;10.394;2023-04-03T11:09:46;3.33;;;3.03;;
18013;SDS011;9132;47.946;10.394;2023-04-03T11:12:16;2.90;;;2.60;;
18013;SDS011;9132;47.946;10.394;2023-04-03T11:14:43;3.30;;;2.80;;
18013;SDS011;9132;47.946;10.394;2023-04-03T11:17:15;6.23;;;4.80;;
18013;SDS011;9132;47.946;10.394;2023-04-03T11:19:46;4.10;;;3.40;;
18013;SDS011;9132;47.946;10.394;2023-04-03T11:22:16;3.40;;;3.10;;
18013;SDS011;9132;47.946;10.394;2023-04-03T11:24:50;4.57;;;3.03;;
18013;SDS011;9132;47.946;10.394;2023-04-03T11:27:20;3.07;;;2.77;;
18013;SDS011;9132;47.946;10.394;2023-04-03T11:29:49;4.30;;;2.77;;
18013;SDS011;9132;47.946;10.394;2023-04-03T11:32:33;3.70;;;3.00;;
18013;SDS011;9132;47.946;10.394;2023-04-03T11:35:02;3.30;;;3.00;;
18013;SDS011;9132;47.946;10.394;2023-04-03T11:37:33;3.90;;;3.20;;
18013;SDS011;9132;47.946;10.394;2023-04-03T11:40:02;7.53;;;3.40;;
18013;SDS011;9132;47.946;10.394;2023-04-03T11:42:32;4.73;;;3.80;;
18013;SDS011;9132;47.946;10.394;2023-04-03T11:45:16;3.47;;;2.90;;
18013;SDS011;9132;47.946;10.394;2023-04-03T11:47:44;4.30;;;2.83;;
18013;SDS011;9132;47.946;10.394;2023-04-03T11:50:13;3.50;;;3.17;;
18013;SDS011;9132;47.946;10.394;2023-04-03T11:53:00;4.70;;;2.87;;
18013;SDS011;9132;47.946;10.394;2023-04-03T11:55:41;3.00;;;2.53;;
18013;SDS011;9132;47.946;10.394;2023-04-03T11:58:13;3.30;;;2.70;;
18013;SDS011;9132;47.946;10.394;2023-04-03T12:00:47;3.37;;;2.80;;
18013;SDS011;9132;47.946;10.394;2023-04-03T12:03:30;3.00;;;2.70;;
18013;SDS011;9132;47.946;10.394;2023-04-03T12:05:57;5.10;;;3.33;;
18013;SDS011;9132;47.946;10.394;2023-04-03T12:08:44;5.03;;;3.40;;
18013;SDS011;9132;47.946;10.394;2023-04-03T12:11:14;5.27;;;4.30;;
18013;SDS011;9132;47.946;10.394;2023-04-03T12:16:29;3.30;;;3.00;;
18013;SDS011;9132;47.946;10.394;2023-04-03T12:19:00;2.90;;;2.70;;
18013;SDS011;9132;47.946;10.394;2023-04-03T12:24:23;4.43;;;3.07;;
18013;SDS011;9132;47.946;10.394;2023-04-03T12:26:50;3.70;;;3.30;;
18013;SDS011;9132;47.946;10.394;2023-04-03T12:29:19;5.80;;;3.30;;
18013;SDS011;9132;47.946;10.394;2023-04-03T12:31:50;4.67;;;3.17;;
18013;SDS011;9132;47.946;10.394;2023-04-03T12:34:29;3.60;;;2.87;;
18013;SDS011;9132;47.946;10.394;2023-04-03T12:37:02;2.90;;;2.63;;
18013;SDS011;9132;47.946;10.394;2023-04-03T12:39:48;3.97;;;2.90;;
18013;SDS011;9132;47.946;10.394;2023-04-03T12:42:21;3.43;;;3.03;;
18013;SDS011;9132;47.946;10.394;2023-04-03T12:44:50;5.40;;;3.67;;
18013;SDS011;9132;47.946;10.394;2023-04-03T12:47:25;7.10;;;4.40;;
18013;SDS011;9132;47.946;10.394;2023-04-03T12:49:53;3.40;;;3.10;;
18013;SDS011;9132;47.946;10.394;2023-04-03T12:52:22;3.90;;;3.20;;
18013;SDS011;9132;47.946;10.394;2023-04-03T12:54:52;5.87;;;4.63;;
18013;SDS011;9132;47.946;10.394;2023-04-03T12:57:19;4.00;;;3.57;;
18013;SDS011;9132;47.946;10.394;2023-04-03T12:59:45;3.30;;;3.00;;
18013;SDS011;9132;47.946;10.394;2023-04-03T13:02:17;4.67;;;3.47;;
18013;SDS011;9132;47.946;10.394;2023-04-03T13:04:47;3.37;;;3.07;;
18013;SDS011;9132;47.946;10.394;2023-04-03T13:07:21;4.67;;;3.37;;
18013;SDS011;9132;47.946;10.394;2023-04-03T13:09:57;4.33;;;3.93;;
18013;SDS011;9132;47.946;10.394;2023-04-03T13:12:24;6.23;;;3.67;;
18013;SDS011;9132;47.946;10.394;2023-04-03T13:14:53;5.43;;;4.30;;
18013;SDS011;9132;47.946;10.394;2023-04-03T13:17:20;8.00;;;5.23;;
18013;SDS011;9132;47.946;10.394;2023-04-03T13:19:48;5.07;;;4.23;;
18013;SDS011;9132;47.946;10.394;2023-04-03T13:22:19;3.77;;;3.37;;
18013;SDS011;9132;47.946;10.394;2023-04-03T13:24:48;3.87;;;3.53;;
18013;SDS011;9132;47.946;10.394;2023-04-03T13:27:15;3.90;;;3.53;;
18013;SDS011;9132;47.946;10.394;2023-04-03T13:29:41;4.70;;;3.40;;
18013;SDS011;9132;47.946;10.394;2023-04-03T13:32:13;6.10;;;3.57;;
18013;SDS011;9132;47.946;10.394;2023-04-03T13:34:44;3.20;;;2.90;;
18013;SDS011;9132;47.946;10.394;2023-04-03T13:37:20;4.03;;;3.07;;
18013;SDS011;9132;47.946;10.394;2023-04-03T13:39:55;3.13;;;2.83;;
18013;SDS011;9132;47.946;10.394;2023-04-03T13:42:23;3.40;;;3.10;;
18013;SDS011;9132;47.946;10.394;2023-04-03T13:47:37;4.20;;;3.80;;
18013;SDS011;9132;47.946;10.394;2023-04-03T13:50:12;5.70;;;3.23;;
18013;SDS011;9132;47.946;10.394;2023-04-03T13:52:41;4.23;;;3.70;;
18013;SDS011;9132;47.946;10.394;2023-04-03T13:55:15;5.93;;;4.33;;
18013;SDS011;9132;47.946;10.394;2023-04-03T13:57:48;4.13;;;3.70;;
18013;SDS011;9132;47.946;10.394;2023-04-03T14:00:21;4.47;;;2.97;;
18013;SDS011;9132;47.946;10.394;2023-04-03T14:02:54;3.90;;;3.10;;
18013;SDS011;9132;47.946;10.394;2023-04-03T14:05:21;5.57;;;4.40;;
18013;SDS011;9132;47.946;10.394;2023-04-03T14:07:51;4.07;;;3.57;;
18013;SDS011;9132;47.946;10.394;2023-04-03T14:10:17;9.73;;;6.00;;
18013;SDS011;9132;47.946;10.394;2023-04-03T14:12:44;6.93;;;4.60;;
18013;SDS011;9132;47.946;10.394;2023-04-03T14:15:12;4.37;;;3.43;;
18013;SDS011;9132;47.946;10.394;2023-04-03T14:17:41;7.50;;;5.33;;
18013;SDS011;9132;47.946;10.394;2023-04-03T14:20:10;4.07;;;3.40;;
18013;SDS011;9132;47.946;10.394;2023-04-03T14:22:37;5.67;;;3.53;;
18013;SDS011;9132;47.946;10.394;2023-04-03T14:25:05;3.77;;;3.10;;
18013;SDS011;9132;47.946;10.394;2023-04-03T14:27:33;12.13;;;6.33;;
18013;SDS011;9132;47.946;10.394;2023-04-03T14:30:00;4.83;;;4.33;;
18013;SDS011;9132;47.946;10.394;2023-04-03T14:32:28;4.50;;;3.63;;
18013;SDS011;9132;47.946;10.394;2023-04-03T14:34:56;4.63;;;3.20;;
18013;SDS011;9132;47.946;10.394;2023-04-03T14:37:24;5.60;;;3.00;;
18013;SDS011;9132;47.946;10.394;2023-04-03T14:39:52;3.33;;;2.50;;
18013;SDS011;9132;47.946;10.394;2023-04-03T14:42:21;3.57;;;2.80;;
18013;SDS011;9132;47.946;10.394;2023-04-03T14:44:48;3.27;;;2.40;;
18013;SDS011;9132;47.946;10.394;2023-04-03T14:47:16;3.23;;;2.87;;
18013;SDS011;9132;47.946;10.394;2023-04-03T14:49:43;2.97;;;2.57;;
18013;SDS011;9132;47.946;10.394;2023-04-03T14:52:15;3.87;;;2.60;;
18013;SDS011;9132;47.946;10.394;2023-04-03T14:54:43;3.63;;;2.93;;
18013;SDS011;9132;47.946;10.394;2023-04-03T14:57:09;3.83;;;3.00;;
18013;SDS011;9132;47.946;10.394;2023-04-03T14:59:39;3.43;;;3.07;;